Weather at Vincent Airport [CLOSED]

Public forecast

Using degrees Fahrenheit for public forecast. Weather courtesy of forecast.io.

Closest aviation weather report (METAR) to Vincent Airport

Closest report is Burlington Municipal Airport, 10.4 nm (19.2 km) N. Retrieved 2021/06/13 16:15 UTC (0 seconds ago):

KBUU 131615Z AUTO 35005KT 10SM 28/12 A3002 RMK AO2 T02750116 PWINO

Closest aviation forecast (TAF) to Vincent Airport

Closest forecast is Kenosha Regional Airport, 17.1 nm (31.6 km) ENE. Retrieved 2021/06/13 12:22 UTC (4 hours ago):

TAF KENW 131120Z 1312/1412 34005KT P6SM FEW250 FM132200 08007KT P6SM SKC FM140200 18003KT P6SM SKC FM140800 36007KT P6SM SCT250